Time;durP1;ratioP1;P1;durP2;ratioP2;P2;SDS_P1;SDS_P2;PMS_P1;PMS_P2;Temp;Humidity;BMP_temperature;BMP_pressure;BME280_temperature;BME280_humidity;BME280_pressure;Samples;Min_cycle;Max_cycle;Signal;HPM_P1;HPM_P2
2023/02/26 00:00:25;;;;;;;;;;;;;;;;;;4228310;28;19965;-36
2023/02/26 00:02:26;;;;;;;;;;;;;;;;;;4221996;28;19916;-35
2023/02/26 00:04:27;;;;;;;;;;;;;;;;;;4231590;28;19991;-36
2023/02/26 00:06:28;;;;;;;;;;;;;;;;;;4231923;28;20327;-36
2023/02/26 00:08:30;;;;;;;;;;;;;;;;;;4231705;28;19919;-37
2023/02/26 00:10:31;;;;;;;;;;;;;;;;;;4231727;28;19965;-36
2023/02/26 00:12:32;;;;;;;;;;;;;;;;;;4226330;28;19943;-36
2023/02/26 00:14:33;;;;;;;;;;;;;;;;;;4217865;28;19920;-36
2023/02/26 00:16:34;;;;;;;;;;;;;;;;;;4214361;28;20375;-36
2023/02/26 00:18:35;;;;;;;;;;;;;;;;;;4214944;28;19920;-36
2023/02/26 00:20:36;;;;;;;;;;;;;;;;;;4221886;28;19915;-36
2023/02/26 00:22:38;;;;;;;;;;;;;;;;;;4219133;28;19924;-36
2023/02/26 00:24:39;;;;;;;;;;;;;;;;;;4214202;28;19973;-36
2023/02/26 00:26:40;;;;;;;;;;;;;;;;;;4214656;28;19916;-37
2023/02/26 00:28:41;;;;;;;;;;;;;;;;;;4213273;28;20391;-36
2023/02/26 00:30:42;;;;;;;;;;;;;;;;;;4190594;28;19917;-36
2023/02/26 00:32:43;;;;;;;;;;;;;;;;;;4215382;28;19938;-36
2023/02/26 00:34:44;;;;;;;;;;;;;;;;;;4213826;28;20006;-36
2023/02/26 00:36:46;;;;;;;;;;;;;;;;;;4214520;28;19916;-36
2023/02/26 00:38:47;;;;;;;;;;;;;;;;;;4196483;28;20403;-36
2023/02/26 00:40:48;;;;;;;;;;;;;;;;;;4214416;28;20325;-36
2023/02/26 00:42:49;;;;;;;;;;;;;;;;;;4196018;28;19916;-36
2023/02/26 00:44:50;;;;;;;;;;;;;;;;;;4218946;28;20024;-37
2023/02/26 00:46:51;;;;;;;;;;;;;;;;;;4222901;28;19916;-36
2023/02/26 00:48:53;;;;;;;;;;;;;;;;;;4212725;28;20402;-36
2023/02/26 00:50:55;;;;;;;;;;;;;;;;;;4213773;28;19962;-35
2023/02/26 00:52:56;;;;;;;;;;;;;;;;;;4216463;28;19920;-35
2023/02/26 00:54:58;;;;;;;;;;;;;;;;;;4212099;28;19920;-36
2023/02/26 00:56:59;;;;;;;;;;;;;;;;;;4219275;28;19916;-36
2023/02/26 00:58:59;;;;;;;;;;;;;;;;;;4218026;28;20031;-36
2023/02/26 01:01:02;;;;;;;;;;;;;;;;;;4212416;28;20325;-36
2023/02/26 01:03:03;;;;;;;;;;;;;;;;;;4214655;28;20456;-36
2023/02/26 01:05:04;;;;;;;;;;;;;;;;;;4217493;28;20310;-36
2023/02/26 01:07:06;;;;;;;;;;;;;;;;;;4224713;28;19919;-36
2023/02/26 01:09:06;;;;;;;;;;;;;;;;;;4210516;28;20536;-36
2023/02/26 01:11:08;;;;;;;;;;;;;;;;;;4223577;28;19920;-36
2023/02/26 01:13:09;;;;;;;;;;;;;;;;;;4220160;28;19919;-36
2023/02/26 01:15:10;;;;;;;;;;;;;;;;;;4219258;28;20202;-37
2023/02/26 01:17:11;;;;;;;;;;;;;;;;;;4219203;28;20420;-36
2023/02/26 01:19:14;;;;;;;;;;;;;;;;;;4211934;27;19920;-38
2023/02/26 01:21:15;;;;;;;;;;;;;;;;;;4213249;28;19924;-37
2023/02/26 01:23:16;;;;;;;;;;;;;;;;;;4206968;28;20009;-36
2023/02/26 01:25:18;;;;;;;;;;;;;;;;;;4221663;27;19920;-37
2023/02/26 01:27:19;;;;;;;;;;;;;;;;;;4212279;28;19927;-36
2023/02/26 01:29:20;;;;;;;;;;;;;;;;;;4218639;28;19916;-36
2023/02/26 01:31:21;;;;;;;;;;;;;;;;;;4207468;28;20363;-37
2023/02/26 01:33:22;;;;;;;;;;;;;;;;;;4208276;28;19916;-37
2023/02/26 01:35:23;;;;;;;;;;;;;;;;;;4209537;28;19920;-35
2023/02/26 01:37:24;;;;;;;;;;;;;;;;;;4206719;28;19920;-36
2023/02/26 01:39:25;;;;;;;;;;;;;;;;;;4200244;28;19974;-36
2023/02/26 01:41:26;;;;;;;;;;;;;;;;;;4206939;28;19924;-37
2023/02/26 01:43:27;;;;;;;;;;;;;;;;;;4218361;28;20268;-36
2023/02/26 01:45:28;;;;;;;;;;;;;;;;;;4210908;28;19985;-37
2023/02/26 01:47:29;;;;;;;;;;;;;;;;;;4222226;28;19927;-37
2023/02/26 01:49:31;;;;;;;;;;;;;;;;;;4216651;28;19916;-36
2023/02/26 01:51:32;;;;;;;;;;;;;;;;;;4211255;28;19924;-37
2023/02/26 01:53:33;;;;;;;;;;;;;;;;;;4202648;28;19916;-36
2023/02/26 01:55:35;;;;;;;;;;;;;;;;;;4206354;28;19952;-36
2023/02/26 01:57:37;;;;;;;;;;;;;;;;;;4218893;28;19919;-38
2023/02/26 01:59:38;;;;;;;;;;;;;;;;;;4211056;28;19915;-36
2023/02/26 02:01:39;;;;;;;;;;;;;;;;;;4213994;28;19938;-38
2023/02/26 02:03:40;;;;;;;;;;;;;;;;;;4213034;28;19916;-35
2023/02/26 02:05:42;;;;;;;;;;;;;;;;;;4218647;28;19961;-37
2023/02/26 02:07:43;;;;;;;;;;;;;;;;;;4225048;28;19919;-36
2023/02/26 02:09:46;;;;;;;;;;;;;;;;;;4194917;28;20379;-35
2023/02/26 02:11:47;;;;;;;;;;;;;;;;;;4216245;28;20343;-37
2023/02/26 02:13:48;;;;;;;;;;;;;;;;;;4202663;28;19915;-36
2023/02/26 02:15:49;;;;;;;;;;;;;;;;;;4222543;28;19920;-37
2023/02/26 02:17:50;;;;;;;;;;;;;;;;;;4212102;28;19916;-36
2023/02/26 02:19:52;;;;;;;;;;;;;;;;;;4208199;28;20480;-36
2023/02/26 02:21:53;;;;;;;;;;;;;;;;;;4213115;28;19962;-35
2023/02/26 02:23:54;;;;;;;;;;;;;;;;;;4199892;28;19920;-36
2023/02/26 02:25:55;;;;;;;;;;;;;;;;;;4212945;28;20297;-35
2023/02/26 02:27:56;;;;;;;;;;;;;;;;;;4218956;28;19920;-36
2023/02/26 02:29:57;;;;;;;;;;;;;;;;;;4222993;28;19973;-36
2023/02/26 02:31:58;;;;;;;;;;;;;;;;;;4212947;28;19920;-35
2023/02/26 02:33:59;;;;;;;;;;;;;;;;;;4212136;28;19920;-37
2023/02/26 02:36:00;;;;;;;;;;;;;;;;;;4203087;28;19916;-36
2023/02/26 02:38:01;;;;;;;;;;;;;;;;;;4217451;28;20101;-37
2023/02/26 02:40:03;;;;;;;;;;;;;;;;;;4213445;28;19916;-35
2023/02/26 02:42:04;;;;;;;;;;;;;;;;;;4195101;28;20374;-37
2023/02/26 02:44:05;;;;;;;;;;;;;;;;;;4198773;28;19919;-41
2023/02/26 02:46:06;;;;;;;;;;;;;;;;;;4212874;28;19977;-35
2023/02/26 02:48:08;;;;;;;;;;;;;;;;;;4212865;28;19920;-35
2023/02/26 02:50:09;;;;;;;;;;;;;;;;;;4198363;28;19916;-36
2023/02/26 02:52:10;;;;;;;;;;;;;;;;;;4218681;28;19916;-36
2023/02/26 02:54:11;;;;;;;;;;;;;;;;;;4219224;28;19964;-36
2023/02/26 02:56:13;;;;;;;;;;;;;;;;;;4221882;28;19929;-36
2023/02/26 02:58:14;;;;;;;;;;;;;;;;;;4212943;28;19916;-36
2023/02/26 03:00:15;;;;;;;;;;;;;;;;;;4200863;28;19928;-37
2023/02/26 03:02:16;;;;;;;;;;;;;;;;;;4196369;28;19979;-36
2023/02/26 03:04:17;;;;;;;;;;;;;;;;;;4206410;28;19920;-38
2023/02/26 03:06:18;;;;;;;;;;;;;;;;;;4211656;28;19923;-37
2023/02/26 03:08:23;;;;;;;;;;;;;;;;;;4212867;28;19962;-37
2023/02/26 03:10:24;;;;;;;;;;;;;;;;;;4214315;28;19916;-37
2023/02/26 03:12:25;;;;;;;;;;;;;;;;;;4215739;28;19966;-36
2023/02/26 03:14:26;;;;;;;;;;;;;;;;;;4221504;28;19916;-36
2023/02/26 03:16:28;;;;;;;;;;;;;;;;;;4198428;28;19974;-36
2023/02/26 03:18:29;;;;;;;;;;;;;;;;;;4229650;28;20443;-35
2023/02/26 03:20:30;;;;;;;;;;;;;;;;;;4204553;28;19916;-36
2023/02/26 03:22:32;;;;;;;;;;;;;;;;;;4197564;28;20338;-36
2023/02/26 03:24:36;;;;;;;;;;;;;;;;;;4183719;28;19975;-37
2023/02/26 03:26:37;;;;;;;;;;;;;;;;;;4197804;28;20014;-36
2023/02/26 03:28:39;;;;;;;;;;;;;;;;;;4200347;28;19917;-37
2023/02/26 03:30:41;;;;;;;;;;;;;;;;;;4214295;28;19916;-36
2023/02/26 03:32:42;;;;;;;;;;;;;;;;;;4201388;28;19986;-36
2023/02/26 03:34:44;;;;;;;;;;;;;;;;;;4212600;28;20413;-35
2023/02/26 03:36:45;;;;;;;;;;;;;;;;;;4214089;28;20086;-36
2023/02/26 03:38:53;;;;;;;;;;;;;;;;;;4206942;28;20326;-37
2023/02/26 03:40:54;;;;;;;;;;;;;;;;;;4221724;28;19942;-36
2023/02/26 03:42:56;;;;;;;;;;;;;;;;;;4207008;28;20354;-36
2023/02/26 03:44:57;;;;;;;;;;;;;;;;;;4226043;28;19920;-35
2023/02/26 03:46:57;;;;;;;;;;;;;;;;;;4197406;28;20334;-37
2023/02/26 03:48:59;;;;;;;;;;;;;;;;;;4205091;28;19916;-37
2023/02/26 03:51:02;;;;;;;;;;;;;;;;;;4210826;28;19916;-39
2023/02/26 03:53:05;;;;;;;;;;;;;;;;;;4219456;28;19970;-37
2023/02/26 03:55:20;;;;;;;;;;;;;;;;;;4196832;28;19916;-36
2023/02/26 03:57:40;;;;;;;;;;;;;;;;;;4206746;28;19924;-36
2023/02/26 03:59:55;;;;;;;;;;;;;;;;;;4208364;28;19990;-37
2023/02/26 04:02:15;;;;;;;;;;;;;;;;;;4214999;28;19916;-36
2023/02/26 04:04:17;;;;;;;;;;;;;;;;;;4212649;28;19981;-36
2023/02/26 04:06:19;;;;;;;;;;;;;;;;;;4213772;28;19920;-36
2023/02/26 04:08:20;;;;;;;;;;;;;;;;;;4216621;28;19998;-36
2023/02/26 04:10:21;;;;;;;;;;;;;;;;;;4226563;28;19961;-37
2023/02/26 04:12:22;;;;;;;;;;;;;;;;;;4226210;28;19961;-35
2023/02/26 04:14:24;;;;;;;;;;;;;;;;;;4212158;28;19974;-35
2023/02/26 04:16:27;;;;;;;;;;;;;;;;;;4203120;28;19974;-36
2023/02/26 04:18:28;;;;;;;;;;;;;;;;;;4225513;27;19916;-37
2023/02/26 04:20:29;;;;;;;;;;;;;;;;;;4210864;28;20370;-36
2023/02/26 04:22:30;;;;;;;;;;;;;;;;;;4211133;28;19916;-35
2023/02/26 04:24:32;;;;;;;;;;;;;;;;;;4212565;28;19970;-38
2023/02/26 04:26:35;;;;;;;;;;;;;;;;;;4219415;28;19945;-38
2023/02/26 04:28:36;;;;;;;;;;;;;;;;;;4214361;28;20427;-35
2023/02/26 04:30:38;;;;;;;;;;;;;;;;;;4213272;28;20013;-37
2023/02/26 04:32:41;;;;;;;;;;;;;;;;;;4195823;28;19916;-36
2023/02/26 04:34:45;;;;;;;;;;;;;;;;;;4195989;28;20387;-36
2023/02/26 04:36:46;;;;;;;;;;;;;;;;;;4196360;28;19924;-39
2023/02/26 04:38:47;;;;;;;;;;;;;;;;;;4204818;28;20393;-37
2023/02/26 04:40:49;;;;;;;;;;;;;;;;;;4208096;28;19916;-35
2023/02/26 04:42:50;;;;;;;;;;;;;;;;;;4212297;28;19920;-37
2023/02/26 04:44:56;;;;;;;;;;;;;;;;;;4200847;28;19926;-35
2023/02/26 04:46:59;;;;;;;;;;;;;;;;;;4212260;28;19920;-36
2023/02/26 04:49:03;;;;;;;;;;;;;;;;;;4211262;28;19915;-36
2023/02/26 04:51:05;;;;;;;;;;;;;;;;;;4196302;28;19947;-35
2023/02/26 04:53:07;;;;;;;;;;;;;;;;;;4209277;28;19924;-39
2023/02/26 04:55:09;;;;;;;;;;;;;;;;;;4211266;28;19916;-37
2023/02/26 04:57:12;;;;;;;;;;;;;;;;;;4212940;28;20313;-36
2023/02/26 04:59:13;;;;;;;;;;;;;;;;;;4212903;28;19916;-35
2023/02/26 05:01:15;;;;;;;;;;;;;;;;;;4212942;28;19920;-35
2023/02/26 05:03:16;;;;;;;;;;;;;;;;;;4230686;28;19919;-36
2023/02/26 05:05:17;;;;;;;;;;;;;;;;;;4198341;28;19958;-37
2023/02/26 05:07:18;;;;;;;;;;;;;;;;;;4195940;28;19924;-36
2023/02/26 05:09:19;;;;;;;;;;;;;;;;;;4215676;28;19916;-35
2023/02/26 05:11:24;;;;;;;;;;;;;;;;;;4207817;28;19916;-37
2023/02/26 05:13:25;;;;;;;;;;;;;;;;;;4229534;28;20168;-37
2023/02/26 05:15:26;;;;;;;;;;;;;;;;;;4212746;28;19920;-36
2023/02/26 05:17:27;;;;;;;;;;;;;;;;;;4202044;28;19921;-37
2023/02/26 05:19:28;;;;;;;;;;;;;;;;;;4207405;28;19965;-36
2023/02/26 05:21:30;;;;;;;;;;;;;;;;;;4215655;28;19973;-36
2023/02/26 05:23:31;;;;;;;;;;;;;;;;;;4207813;28;19928;-36
2023/02/26 05:25:32;;;;;;;;;;;;;;;;;;4205130;28;19919;-37
2023/02/26 05:27:33;;;;;;;;;;;;;;;;;;4212520;28;20290;-35
2023/02/26 05:29:34;;;;;;;;;;;;;;;;;;4210431;28;19923;-37
2023/02/26 05:31:37;;;;;;;;;;;;;;;;;;4196169;28;20635;-36
2023/02/26 05:33:38;;;;;;;;;;;;;;;;;;4230594;28;19920;-35
2023/02/26 05:35:40;;;;;;;;;;;;;;;;;;4229903;28;20199;-35
2023/02/26 05:37:41;;;;;;;;;;;;;;;;;;4216145;28;19916;-35
2023/02/26 05:39:42;;;;;;;;;;;;;;;;;;4230226;28;20333;-35
2023/02/26 05:41:45;;;;;;;;;;;;;;;;;;4230444;28;19919;-36
2023/02/26 05:43:46;;;;;;;;;;;;;;;;;;4230532;28;19919;-37
2023/02/26 05:45:47;;;;;;;;;;;;;;;;;;4229457;28;19927;-38
2023/02/26 05:47:48;;;;;;;;;;;;;;;;;;4217538;28;19965;-37
2023/02/26 05:49:49;;;;;;;;;;;;;;;;;;4222959;28;19981;-35
2023/02/26 05:51:51;;;;;;;;;;;;;;;;;;4223473;28;20363;-36
2023/02/26 05:53:52;;;;;;;;;;;;;;;;;;4216999;28;20001;-37
2023/02/26 05:55:53;;;;;;;;;;;;;;;;;;4198192;28;19920;-35
2023/02/26 05:57:54;;;;;;;;;;;;;;;;;;4206579;28;20410;-35
2023/02/26 05:59:55;;;;;;;;;;;;;;;;;;4213320;28;19915;-36
2023/02/26 06:01:55;;;;;;;;;;;;;;;;;;4207661;28;20313;-36
2023/02/26 06:03:57;;;;;;;;;;;;;;;;;;4196319;28;19920;-37
2023/02/26 06:05:57;;;;;;;;;;;;;;;;;;4204594;28;20453;-37
2023/02/26 06:07:58;;;;;;;;;;;;;;;;;;4204907;28;20414;-36
2023/02/26 06:09:59;;;;;;;;;;;;;;;;;;4212962;28;19916;-36
2023/02/26 06:12:00;;;;;;;;;;;;;;;;;;4226850;28;19969;-37
2023/02/26 06:14:01;;;;;;;;;;;;;;;;;;4229842;28;19919;-35
2023/02/26 06:16:02;;;;;;;;;;;;;;;;;;4223716;28;19942;-36
2023/02/26 06:18:03;;;;;;;;;;;;;;;;;;4221667;28;19916;-35
2023/02/26 06:20:04;;;;;;;;;;;;;;;;;;4229902;28;20290;-36
2023/02/26 06:22:05;;;;;;;;;;;;;;;;;;4211998;28;19927;-35
2023/02/26 06:24:06;;;;;;;;;;;;;;;;;;4229943;28;19969;-37
2023/02/26 06:26:08;;;;;;;;;;;;;;;;;;4221635;28;20386;-35
2023/02/26 06:28:09;;;;;;;;;;;;;;;;;;4224647;28;19942;-35
2023/02/26 06:30:11;;;;;;;;;;;;;;;;;;4228618;28;19920;-35
2023/02/26 06:32:12;;;;;;;;;;;;;;;;;;4225799;28;20333;-35
2023/02/26 06:34:13;;;;;;;;;;;;;;;;;;4201767;28;20394;-36
2023/02/26 06:36:14;;;;;;;;;;;;;;;;;;4219797;28;19915;-36
2023/02/26 06:38:15;;;;;;;;;;;;;;;;;;4226760;28;20366;-35
2023/02/26 06:40:16;;;;;;;;;;;;;;;;;;4229782;28;19942;-35
2023/02/26 06:42:17;;;;;;;;;;;;;;;;;;4228470;28;19919;-36
2023/02/26 06:44:18;;;;;;;;;;;;;;;;;;4229910;28;19923;-36
2023/02/26 06:46:20;;;;;;;;;;;;;;;;;;4233317;28;19920;-35
2023/02/26 06:48:21;;;;;;;;;;;;;;;;;;4219304;28;19970;-36
2023/02/26 06:50:22;;;;;;;;;;;;;;;;;;4232821;28;20317;-37
2023/02/26 06:52:23;;;;;;;;;;;;;;;;;;4233177;28;19916;-36
2023/02/26 06:54:25;;;;;;;;;;;;;;;;;;4214955;28;19967;-36
2023/02/26 06:56:26;;;;;;;;;;;;;;;;;;4231965;28;19919;-35
2023/02/26 06:58:26;;;;;;;;;;;;;;;;;;4220018;28;19919;-36
2023/02/26 07:00:27;;;;;;;;;;;;;;;;;;4232900;28;20378;-36
2023/02/26 07:02:29;;;;;;;;;;;;;;;;;;4233025;28;20071;-37
2023/02/26 07:04:30;;;;;;;;;;;;;;;;;;4232402;28;19919;-35
2023/02/26 07:06:31;;;;;;;;;;;;;;;;;;4200901;28;19920;-36
2023/02/26 07:08:32;;;;;;;;;;;;;;;;;;4238127;27;19924;-36
2023/02/26 07:10:34;;;;;;;;;;;;;;;;;;4232921;28;19973;-35
2023/02/26 07:12:37;;;;;;;;;;;;;;;;;;4245356;27;20447;-35
2023/02/26 07:14:38;;;;;;;;;;;;;;;;;;4247510;27;19919;-37
2023/02/26 07:16:39;;;;;;;;;;;;;;;;;;4238166;27;19938;-36
2023/02/26 07:18:40;;;;;;;;;;;;;;;;;;4223330;28;19916;-36
2023/02/26 07:20:42;;;;;;;;;;;;;;;;;;4243848;27;19915;-36
2023/02/26 07:22:43;;;;;;;;;;;;;;;;;;4248463;27;19970;-36
2023/02/26 07:24:44;;;;;;;;;;;;;;;;;;4236397;27;19941;-37
2023/02/26 07:26:45;;;;;;;;;;;;;;;;;;4242678;27;19973;-36
2023/02/26 07:28:46;;;;;;;;;;;;;;;;;;4237943;27;19927;-35
2023/02/26 07:30:47;;;;;;;;;;;;;;;;;;4232568;28;20741;-35
2023/02/26 07:32:48;;;;;;;;;;;;;;;;;;4248863;27;19950;-36
2023/02/26 07:34:49;;;;;;;;;;;;;;;;;;4230882;28;19923;-36
2023/02/26 07:36:50;;;;;;;;;;;;;;;;;;4232378;28;19915;-36
2023/02/26 07:38:51;;;;;;;;;;;;;;;;;;4244780;27;19915;-36
2023/02/26 07:40:52;;;;;;;;;;;;;;;;;;4249189;27;19915;-35
2023/02/26 07:42:54;;;;;;;;;;;;;;;;;;4244509;27;19923;-35
2023/02/26 07:44:55;;;;;;;;;;;;;;;;;;4222290;27;19972;-36
2023/02/26 07:46:56;;;;;;;;;;;;;;;;;;4249439;27;19927;-35
2023/02/26 07:48:57;;;;;;;;;;;;;;;;;;4248691;27;20005;-37
2023/02/26 07:50:58;;;;;;;;;;;;;;;;;;4245824;27;19970;-37
2023/02/26 07:52:59;;;;;;;;;;;;;;;;;;4238960;27;19919;-36
2023/02/26 07:55:00;;;;;;;;;;;;;;;;;;4249085;27;19915;-36
2023/02/26 07:57:01;;;;;;;;;;;;;;;;;;4235770;27;19962;-36
2023/02/26 07:59:02;;;;;;;;;;;;;;;;;;4248027;27;20374;-36
2023/02/26 08:01:03;;;;;;;;;;;;;;;;;;4243820;27;19916;-36
2023/02/26 08:03:05;;;;;;;;;;;;;;;;;;4232378;28;19915;-36
2023/02/26 08:05:06;;;;;;;;;;;;;;;;;;4243623;27;19943;-36
2023/02/26 08:07:07;;;;;;;;;;;;;;;;;;4234889;27;20415;-37
2023/02/26 08:09:08;;;;;;;;;;;;;;;;;;4242356;27;19915;-37
2023/02/26 08:11:09;;;;;;;;;;;;;;;;;;4249135;27;20000;-37
2023/02/26 08:13:10;;;;;;;;;;;;;;;;;;4248916;27;19923;-36
2023/02/26 08:15:13;;;;;;;;;;;;;;;;;;4248392;27;20270;-38
2023/02/26 08:17:15;;;;;;;;;;;;;;;;;;4248723;27;19984;-37
2023/02/26 08:19:17;;;;;;;;;;;;;;;;;;4229854;28;19957;-37
2023/02/26 08:21:18;;;;;;;;;;;;;;;;;;4241986;27;19915;-36
2023/02/26 08:23:19;;;;;;;;;;;;;;;;;;4230906;28;20291;-38
2023/02/26 08:25:20;;;;;;;;;;;;;;;;;;4234110;27;19920;-36
2023/02/26 08:27:21;;;;;;;;;;;;;;;;;;4243155;27;19920;-36
2023/02/26 08:29:24;;;;;;;;;;;;;;;;;;4231412;28;20282;-36
2023/02/26 08:31:26;;;;;;;;;;;;;;;;;;4213632;28;19923;-37
2023/02/26 08:33:28;;;;;;;;;;;;;;;;;;4245246;27;19923;-36
2023/02/26 08:35:29;;;;;;;;;;;;;;;;;;4231390;28;20027;-36
2023/02/26 08:37:29;;;;;;;;;;;;;;;;;;4240075;27;20366;-36
2023/02/26 08:39:34;;;;;;;;;;;;;;;;;;4248598;27;19916;-36
2023/02/26 08:41:35;;;;;;;;;;;;;;;;;;4229735;28;19916;-36
2023/02/26 08:43:36;;;;;;;;;;;;;;;;;;4235749;27;19964;-36
2023/02/26 08:45:37;;;;;;;;;;;;;;;;;;4248185;27;19925;-38
2023/02/26 08:47:40;;;;;;;;;;;;;;;;;;4230445;28;20256;-36
2023/02/26 08:49:41;;;;;;;;;;;;;;;;;;4182062;28;20388;-36
2023/02/26 08:51:42;;;;;;;;;;;;;;;;;;4231271;28;19937;-36
2023/02/26 08:53:46;;;;;;;;;;;;;;;;;;4229906;28;19969;-36
2023/02/26 08:55:47;;;;;;;;;;;;;;;;;;4241197;27;19923;-36
2023/02/26 08:57:48;;;;;;;;;;;;;;;;;;4248125;27;19916;-37
2023/02/26 08:59:49;;;;;;;;;;;;;;;;;;4215743;28;19916;-37
2023/02/26 09:01:50;;;;;;;;;;;;;;;;;;4248079;27;19922;-36
2023/02/26 09:03:51;;;;;;;;;;;;;;;;;;4238993;27;19916;-38
2023/02/26 09:05:52;;;;;;;;;;;;;;;;;;4243044;27;19968;-36
2023/02/26 09:07:54;;;;;;;;;;;;;;;;;;4222284;28;20017;-36
2023/02/26 09:09:55;;;;;;;;;;;;;;;;;;4247826;27;19915;-36
2023/02/26 09:11:57;;;;;;;;;;;;;;;;;;4247850;27;20429;-37
2023/02/26 09:13:58;;;;;;;;;;;;;;;;;;4236880;27;19964;-36
2023/02/26 09:15:59;;;;;;;;;;;;;;;;;;4231179;27;19960;-36
2023/02/26 09:18:00;;;;;;;;;;;;;;;;;;4246829;27;19951;-35
2023/02/26 09:20:01;;;;;;;;;;;;;;;;;;4240578;27;20408;-36
2023/02/26 09:22:02;;;;;;;;;;;;;;;;;;4212826;28;20306;-38
2023/02/26 09:24:03;;;;;;;;;;;;;;;;;;4230748;28;19945;-36
2023/02/26 09:26:04;;;;;;;;;;;;;;;;;;4244388;27;19915;-37
2023/02/26 09:28:05;;;;;;;;;;;;;;;;;;4236441;27;19941;-36
2023/02/26 09:30:06;;;;;;;;;;;;;;;;;;4240985;27;20451;-36
2023/02/26 09:32:08;;;;;;;;;;;;;;;;;;4247843;27;19919;-37
2023/02/26 09:34:09;;;;;;;;;;;;;;;;;;4228521;28;20356;-36
2023/02/26 09:36:10;;;;;;;;;;;;;;;;;;4229599;28;19916;-36
2023/02/26 09:38:12;;;;;;;;;;;;;;;;;;4221756;28;19920;-36
2023/02/26 09:40:13;;;;;;;;;;;;;;;;;;4230469;28;19941;-36
2023/02/26 09:42:14;;;;;;;;;;;;;;;;;;4230331;28;20324;-36
2023/02/26 09:44:15;;;;;;;;;;;;;;;;;;4247321;27;20014;-36
2023/02/26 09:46:16;;;;;;;;;;;;;;;;;;4240963;27;19996;-36
2023/02/26 09:48:17;;;;;;;;;;;;;;;;;;4240185;27;19915;-36
2023/02/26 09:50:18;;;;;;;;;;;;;;;;;;4247065;27;19915;-37
2023/02/26 09:52:19;;;;;;;;;;;;;;;;;;4245025;27;19960;-36
2023/02/26 09:54:20;;;;;;;;;;;;;;;;;;4230400;28;19919;-36
2023/02/26 09:56:21;;;;;;;;;;;;;;;;;;4238874;27;20267;-37
2023/02/26 09:58:22;;;;;;;;;;;;;;;;;;4247388;27;19915;-35
2023/02/26 10:00:24;;;;;;;;;;;;;;;;;;4246718;27;19915;-37
2023/02/26 10:02:25;;;;;;;;;;;;;;;;;;4243129;27;19916;-37
2023/02/26 10:04:26;;;;;;;;;;;;;;;;;;4237300;27;20062;-37
2023/02/26 10:06:27;;;;;;;;;;;;;;;;;;4243910;27;19926;-37
2023/02/26 10:08:29;;;;;;;;;;;;;;;;;;4236467;28;19923;-37
2023/02/26 10:10:30;;;;;;;;;;;;;;;;;;4236496;27;19927;-36
2023/02/26 10:12:31;;;;;;;;;;;;;;;;;;4236526;28;20028;-36
2023/02/26 10:14:32;;;;;;;;;;;;;;;;;;4238262;28;20439;-36
2023/02/26 10:16:34;;;;;;;;;;;;;;;;;;4239564;28;20290;-36
2023/02/26 10:18:35;;;;;;;;;;;;;;;;;;4239441;27;19915;-36
2023/02/26 10:20:38;;;;;;;;;;;;;;;;;;4243975;27;19920;-36
2023/02/26 10:22:39;;;;;;;;;;;;;;;;;;4240984;27;20028;-37
2023/02/26 10:24:40;;;;;;;;;;;;;;;;;;4241701;27;20275;-36
2023/02/26 10:26:41;;;;;;;;;;;;;;;;;;4233384;28;19968;-36
2023/02/26 10:28:42;;;;;;;;;;;;;;;;;;4230233;28;20317;-36
2023/02/26 10:30:44;;;;;;;;;;;;;;;;;;4221748;28;19961;-36
2023/02/26 10:32:45;;;;;;;;;;;;;;;;;;4216685;28;20337;-36
2023/02/26 10:34:46;;;;;;;;;;;;;;;;;;4222508;28;19973;-36
2023/02/26 10:36:47;;;;;;;;;;;;;;;;;;4222924;28;19920;-37
2023/02/26 10:38:50;;;;;;;;;;;;;;;;;;4229251;28;19968;-36
2023/02/26 10:40:51;;;;;;;;;;;;;;;;;;4230776;28;19961;-36
2023/02/26 10:42:52;;;;;;;;;;;;;;;;;;4222016;28;20398;-37
2023/02/26 10:44:53;;;;;;;;;;;;;;;;;;4223579;28;19915;-37
2023/02/26 10:46:54;;;;;;;;;;;;;;;;;;4243982;27;20368;-36
2023/02/26 10:48:56;;;;;;;;;;;;;;;;;;4225121;28;19919;-37
2023/02/26 10:50:57;;;;;;;;;;;;;;;;;;4233190;28;19965;-37
2023/02/26 10:52:58;;;;;;;;;;;;;;;;;;4218100;28;19923;-36
2023/02/26 10:54:59;;;;;;;;;;;;;;;;;;4227135;28;20419;-36
2023/02/26 10:57:00;;;;;;;;;;;;;;;;;;4225579;28;19916;-37
2023/02/26 10:59:01;;;;;;;;;;;;;;;;;;4225710;27;20334;-36
2023/02/26 11:01:02;;;;;;;;;;;;;;;;;;4232986;28;19915;-36
2023/02/26 11:03:04;;;;;;;;;;;;;;;;;;4216327;28;19961;-37
2023/02/26 11:05:05;;;;;;;;;;;;;;;;;;4228273;28;19919;-36
2023/02/26 11:07:06;;;;;;;;;;;;;;;;;;4216747;27;19950;-36
2023/02/26 11:09:07;;;;;;;;;;;;;;;;;;4221213;28;19965;-36
2023/02/26 11:11:08;;;;;;;;;;;;;;;;;;4223439;28;19941;-36
2023/02/26 11:13:10;;;;;;;;;;;;;;;;;;4227396;28;20374;-37
2023/02/26 11:15:11;;;;;;;;;;;;;;;;;;4200911;28;19920;-36
2023/02/26 11:17:12;;;;;;;;;;;;;;;;;;4225547;27;19915;-37
2023/02/26 11:19:14;;;;;;;;;;;;;;;;;;4232136;28;20430;-36
2023/02/26 11:21:15;;;;;;;;;;;;;;;;;;4228671;28;19916;-37
2023/02/26 11:23:16;;;;;;;;;;;;;;;;;;4229534;28;20474;-36
2023/02/26 11:25:18;;;;;;;;;;;;;;;;;;4234872;27;19919;-37
2023/02/26 11:27:19;;;;;;;;;;;;;;;;;;4249461;27;19919;-36
2023/02/26 11:29:20;;;;;;;;;;;;;;;;;;4240720;27;20352;-36
2023/02/26 11:31:21;;;;;;;;;;;;;;;;;;4244917;27;19919;-37
2023/02/26 11:33:22;;;;;;;;;;;;;;;;;;4249154;27;20378;-38
2023/02/26 11:35:23;;;;;;;;;;;;;;;;;;4241677;27;20386;-36
2023/02/26 11:37:24;;;;;;;;;;;;;;;;;;4247796;27;19915;-36
2023/02/26 11:39:25;;;;;;;;;;;;;;;;;;4243697;27;19923;-36
2023/02/26 11:41:26;;;;;;;;;;;;;;;;;;4241813;27;19920;-36
2023/02/26 11:43:27;;;;;;;;;;;;;;;;;;4242006;27;19963;-37
2023/02/26 11:45:28;;;;;;;;;;;;;;;;;;4230957;28;19923;-36
2023/02/26 11:47:29;;;;;;;;;;;;;;;;;;4239227;27;19938;-36
2023/02/26 11:49:31;;;;;;;;;;;;;;;;;;4238272;27;19922;-36
2023/02/26 11:51:32;;;;;;;;;;;;;;;;;;4248935;27;20372;-37
2023/02/26 11:53:33;;;;;;;;;;;;;;;;;;4249129;27;20018;-36
2023/02/26 11:55:34;;;;;;;;;;;;;;;;;;4249135;27;19920;-36
2023/02/26 11:57:36;;;;;;;;;;;;;;;;;;4243190;27;20340;-36
2023/02/26 11:59:37;;;;;;;;;;;;;;;;;;4247292;27;19964;-36
2023/02/26 12:01:38;;;;;;;;;;;;;;;;;;4249070;27;19976;-37
2023/02/26 12:03:39;;;;;;;;;;;;;;;;;;4249071;27;19960;-37
2023/02/26 12:05:40;;;;;;;;;;;;;;;;;;4236907;27;19916;-37
2023/02/26 12:07:42;;;;;;;;;;;;;;;;;;4232703;28;19915;-36
2023/02/26 12:09:43;;;;;;;;;;;;;;;;;;4248973;27;19915;-36
2023/02/26 12:11:45;;;;;;;;;;;;;;;;;;4248709;27;20503;-37
2023/02/26 12:13:46;;;;;;;;;;;;;;;;;;4248950;27;19915;-36
2023/02/26 12:15:47;;;;;;;;;;;;;;;;;;4248768;27;20290;-37
2023/02/26 12:17:48;;;;;;;;;;;;;;;;;;4248557;27;20370;-37
2023/02/26 12:19:49;;;;;;;;;;;;;;;;;;4248216;27;19973;-36
2023/02/26 12:21:51;;;;;;;;;;;;;;;;;;4245832;27;19916;-37
2023/02/26 12:23:52;;;;;;;;;;;;;;;;;;4243889;27;19923;-36
2023/02/26 12:25:53;;;;;;;;;;;;;;;;;;4230094;28;19920;-37
2023/02/26 12:27:54;;;;;;;;;;;;;;;;;;4241275;27;20331;-36
2023/02/26 12:29:55;;;;;;;;;;;;;;;;;;4234725;27;19938;-36
2023/02/26 12:31:56;;;;;;;;;;;;;;;;;;4224707;28;19947;-36
2023/02/26 12:33:57;;;;;;;;;;;;;;;;;;4233698;27;19923;-37
2023/02/26 12:35:58;;;;;;;;;;;;;;;;;;4248489;27;20377;-36
2023/02/26 12:37:59;;;;;;;;;;;;;;;;;;4248463;27;19915;-37
2023/02/26 12:40:01;;;;;;;;;;;;;;;;;;4238257;27;20370;-36
2023/02/26 12:42:01;;;;;;;;;;;;;;;;;;4244450;27;19915;-37
2023/02/26 12:44:02;;;;;;;;;;;;;;;;;;4227189;28;20313;-35
2023/02/26 12:46:03;;;;;;;;;;;;;;;;;;4237189;27;19915;-36
2023/02/26 12:48:04;;;;;;;;;;;;;;;;;;4239703;27;19923;-36
2023/02/26 12:50:07;;;;;;;;;;;;;;;;;;4242732;27;19916;-39
2023/02/26 12:52:08;;;;;;;;;;;;;;;;;;4248237;27;19971;-38
2023/02/26 12:54:09;;;;;;;;;;;;;;;;;;4243595;27;19920;-36
2023/02/26 12:56:10;;;;;;;;;;;;;;;;;;4237780;27;19920;-36
2023/02/26 12:58:11;;;;;;;;;;;;;;;;;;4248187;27;20385;-36
2023/02/26 13:00:12;;;;;;;;;;;;;;;;;;4247567;27;20010;-37
2023/02/26 13:02:13;;;;;;;;;;;;;;;;;;4248127;27;19923;-36
2023/02/26 13:04:14;;;;;;;;;;;;;;;;;;4247558;27;19945;-35
2023/02/26 13:06:15;;;;;;;;;;;;;;;;;;4231539;27;20356;-36
2023/02/26 13:08:16;;;;;;;;;;;;;;;;;;4226136;28;19923;-37
2023/02/26 13:10:18;;;;;;;;;;;;;;;;;;4245252;27;20315;-37
2023/02/26 13:12:19;;;;;;;;;;;;;;;;;;4235204;27;19967;-36
2023/02/26 13:14:20;;;;;;;;;;;;;;;;;;4247676;27;19919;-37
2023/02/26 13:16:21;;;;;;;;;;;;;;;;;;4236080;27;20370;-36
2023/02/26 13:18:22;;;;;;;;;;;;;;;;;;4245581;27;19922;-35
2023/02/26 13:20:23;;;;;;;;;;;;;;;;;;4247220;27;19919;-35
2023/02/26 13:22:24;;;;;;;;;;;;;;;;;;4247846;27;19915;-36
2023/02/26 13:24:26;;;;;;;;;;;;;;;;;;4218559;28;20013;-36
2023/02/26 13:26:27;;;;;;;;;;;;;;;;;;4244682;27;20042;-39
2023/02/26 13:28:29;;;;;;;;;;;;;;;;;;4246485;27;19923;-37
2023/02/26 13:30:32;;;;;;;;;;;;;;;;;;4237219;27;19951;-35
2023/02/26 13:32:34;;;;;;;;;;;;;;;;;;4237661;27;19927;-36
2023/02/26 13:34:35;;;;;;;;;;;;;;;;;;4243113;27;19927;-35
2023/02/26 13:36:36;;;;;;;;;;;;;;;;;;4244807;27;19915;-36
2023/02/26 13:38:37;;;;;;;;;;;;;;;;;;4236467;27;19923;-36
2023/02/26 13:40:38;;;;;;;;;;;;;;;;;;4220423;28;19916;-36
2023/02/26 13:42:40;;;;;;;;;;;;;;;;;;4229286;28;20336;-35
2023/02/26 13:44:41;;;;;;;;;;;;;;;;;;4245319;27;20381;-36
2023/02/26 13:46:42;;;;;;;;;;;;;;;;;;4242880;27;19961;-36
2023/02/26 13:48:43;;;;;;;;;;;;;;;;;;4238359;27;19915;-38